Highlands Peak, California Weather observations

Data are for observation ending at time listed.
 Day   Time    Ave.   Ave.  Ave.  Vector   Max.   Stn.    Total    Solar   Ave.  
  of    of     Air    Rel.  Wind   Wind    Wind   Baro.  Precip.   Rad.    Soil  
Year   Day     Temp.  Hum.  Speed  Dir.    Gust   Pres.                    Temp. 
2016   (PST)    F      %     mph   deg.    mph     mb.     in.     W/m2     F   
------------------------------------------------------------------------------
 180   20:50   84.4    17    4.0     9      5.5   930.0    0.00       0    98.8
 180   21:00   84.4    17    5.0     8      7.3   930.0    0.00       0    98.6
 180   21:10   85.4    16    4.0     4      6.3   929.9    0.00       0    98.4
 180   21:20   85.5    15    4.7    28      6.9   929.9    0.00       0    98.0
 180   21:30   84.1    16    5.4    51      7.2   929.9    0.00       0    97.7
 180   21:40   83.2    16    5.7    40      7.2   929.9    0.00       0    97.5
 180   21:50   83.1    17    4.9    22      7.4   929.8    0.00       0    97.3
 180   22:00   83.6    16    2.8    16      4.7   929.8    0.00       0    97.0
 180   22:10   83.8    16    4.4    23      6.3   929.7    0.00       0    96.7
 180   22:20   83.3    17    4.1    89      6.6   929.6    0.00       0    96.4
 180   22:30   83.9    18    2.8   125      4.2   929.6    0.00       0    96.2
 180   22:40   84.7    17    3.2    97      4.7   929.5    0.00       0    95.8
 180   22:50   84.5    15    3.9    78      5.3   929.4    0.00       0    95.6
 180   23:00   85.1    15    3.5    81      5.7   929.4    0.00       0    95.3
 180   23:10   84.4    14    4.1    56      5.9   929.4    0.00       0    95.1
 180   23:20   84.3    14    4.7    47      7.5   929.4    0.00       0    94.8
 180   23:30   84.3    14    3.9    41      6.1   929.4    0.00       0    94.6
 180   23:40   85.1    14    2.5    99      4.8   929.3    0.00       0    94.3
 180   23:50   85.0    17    4.5   131      5.2   929.3    0.00       0    94.1
 181    0:00   84.9    17    4.6   140      5.6   929.2    0.00       0    93.8
 181    0:10   83.5    18    5.3   147      6.0   929.2    0.00       0    93.6
 181    0:20   83.2    17    4.1   113      5.0   929.1    0.00       0    93.4
 181    0:30   83.9    16    3.4   128      4.2   929.1    0.00       0    93.1
 181    0:40   84.2    16    2.9   114      3.5   929.1    0.00       0    92.9
 181    0:50   84.1    14    3.0    70      4.0   929.0    0.00       0    92.6
 181    1:00   84.6    12    3.0    51      4.4   929.0    0.00       0    92.3
 181    1:10   84.3    11    3.0    43      4.5   928.9    0.00       0    92.1
 181    1:20   84.6    12    0.6   327      2.2   928.9    0.00       0    91.9
 181    1:30   84.7    12    0.3    88      1.6   928.8    0.00       0    91.6
 181    1:40   84.4    12    0.2    52      1.5   928.9    0.00       0    91.4
 181    1:50   84.1    11    1.9   350      3.1   928.9    0.00       0    91.1
 181    2:00   83.8    10    2.4    32      4.4   928.9    0.00       0    91.0
 181    2:10   83.4    10    3.3    38      5.5   928.8    0.00       0    90.8
 181    2:20   82.8    10    3.4    40      5.9   928.8    0.00       0    90.7
 181    2:30   81.8    10    7.6    19     10.2   928.8    0.00       0    90.8
 181    2:40   81.6    10    6.0    32      8.4   928.8    0.00       0    90.6
 181    2:50   82.0     9    3.1    12      4.5   928.8    0.00       0    90.2
 181    3:00   82.8     9    1.4   168      2.6   928.8    0.00       0    89.9
 181    3:10   82.9    10    1.8   151      3.0   928.8    0.00       0    89.7
 181    3:20   82.4    12    2.5   146      3.4   928.9    0.00       0    89.4
 181    3:30   82.6    12    2.2   125      3.4   928.9    0.00       0    89.2
 181    3:40   82.5    11    2.8    92      4.6   928.9    0.00       0    89.0
 181    3:50   82.4     9    3.6    73      4.7   928.9    0.00       0    88.9
 181    4:00   82.7     8    3.3    70      4.3   928.9    0.00       0    88.7
 181    4:10   82.8     8    1.9   137      2.6   929.0    0.00       0    88.5
 181    4:20   83.2     8    0.9   154      1.7   929.0    0.00       0    88.0
 181    4:30   83.1     9    2.4   142      3.6   929.0    0.00       0    87.9
 181    4:40   82.5    10    3.0   141      4.6   929.0    0.00       0    87.8
 181    4:50   82.1    10    1.4   111      3.7   929.1    0.00       1    87.7
 181    5:00   82.3     8    2.3    27      5.0   929.2    0.00       4    87.4
 181    5:10   82.3     6    1.2    43      3.1   929.3    0.00       7    87.3
 181    5:20   82.4     8    0.5   262      2.0   929.4    0.00      12    87.0
 181    5:30   81.7    10    2.5   156      4.7   929.4    0.00      17    86.8
 181    5:40   81.4    10    2.5   169      4.8   929.5    0.00      21    86.7
 181    5:50   81.6    11    3.9   151      5.5   929.5    0.00      24    86.6
 181    6:00   80.4    12    5.9   138      7.2   929.6    0.00      98    86.6
 181    6:10   81.6    12    4.8   133      6.3   929.6    0.00     210    86.4
 181    6:20   82.7    11    4.3   123      5.6   929.7    0.00     250    86.2
 181    6:30   83.4    10    3.3   114      5.2   929.8    0.00     287    86.1
 181    6:40   83.9    11    3.1   136      4.5   929.8    0.00     326    86.0
 181    6:50   84.2    12    2.7   120      4.0   929.9    0.00     366    85.9
 181    7:00   85.3    12    1.4    40      3.1   930.0    0.00     407    85.7
 181    7:10   87.0    12    0.5    41      2.0   930.1    0.00     446    85.7
 181    7:20   87.5    14    2.2    59      3.2   930.2    0.00     484    85.6
 181    7:30   87.1    13    1.9    66      3.4   930.2    0.00     522    85.6
 181    7:40   87.8    11    1.3   272      3.1   930.3    0.00     541    85.6
 181    7:50   85.9    12    1.1   264      1.8   930.3    0.00     592    85.6
 181    8:00   86.4    12    0.5   234      1.7   930.4    0.00     627    85.6
 181    8:10   87.1    13    0.9   227      2.0   930.3    0.00     659    85.7
 181    8:20   87.0    15    1.4   248      2.0   930.3    0.00     691    85.8
 181    8:30   86.1    15    1.4   236      2.2   930.5    0.00     721    85.9
 181    8:40   86.1    14    1.8   254      2.7   930.5    0.00     752    86.0
 181    8:50   85.4    13    1.7   270      2.6   930.5    0.00     781    86.2
 181    9:00   85.3    15    1.4   272      2.3   930.5    0.00     812    86.3
 181    9:10   85.7    17    1.4   262      2.4   930.5    0.00     846    86.5
 181    9:20   86.3    16    1.9   273      3.0   930.5    0.00     882    86.8
 181    9:30   86.6    17    2.2   270      3.1   930.5    0.00     911    87.0
 181    9:40   86.6    17    2.6   268      4.0   930.5    0.00     937    87.2
 181    9:50   86.1    15    2.0   267      3.1   930.5    0.00     959    87.5
 181   10:00   86.5    15    2.0   280      3.5   930.5    0.00     976    87.8
 181   10:10   86.7    15    2.7   262      4.0   930.6    0.00     993    88.1
 181   10:20   87.1    16    3.3   270      5.6   930.6    0.00    1008    88.4
 181   10:30   87.0    17    3.0   268      5.0   930.5    0.00    1023    88.7
 181   10:40   87.8    17    3.7   264      5.6   930.6    0.00    1037    89.0
 181   10:50   88.1    18    3.6   262      5.7   930.6    0.00    1045    89.3
 181   11:00   88.1    18    3.8   270      6.6   930.6    0.00    1053    89.7
 181   11:10   88.8    18    5.2   262      7.7   930.6    0.00    1059    90.0
 181   11:20   88.7    17    5.0   262      7.9   930.6    0.00    1065    90.3
 181   11:30   88.6    16    4.7   258      8.0   930.6    0.00    1067    90.6
 181   11:40   88.1    15    4.6   264      6.9   930.6    0.00    1069    90.8
 181   11:50   88.8    13    4.5   261      6.8   930.6    0.00    1073    91.0
 181   12:00   88.9    13    5.2   266      7.8   930.6    0.00    1073    91.2
 181   12:10   88.6    10    5.4   275      8.8   930.5    0.00    1075    91.3
 181   12:20   88.6     7    4.8   263      6.8   930.4    0.00    1076    91.4
 181   12:30   88.6     9    5.8   249      8.3   930.4    0.00    1074    91.4
 181   12:40   89.6     8    4.9   247      8.0   930.4    0.00    1069    91.4
 181   12:50   89.7     8    6.7   269     11.0   930.3    0.00    1063    91.5
 181   13:00   90.5     9    6.6   266     10.0   930.3    0.00    1056    91.6
 181   13:10   90.4     9    5.9   258      9.4   930.2    0.00    1046    91.7
 181   13:20   89.9     8    6.6   268     10.7   930.2    0.00    1035    91.9
 181   13:30   89.6     8    7.2   270     12.3   930.2    0.00     995    92.2
 181   13:40   89.7     8    8.1   269     13.4   930.2    0.00    1009    92.5
 181   13:50   89.4     8    9.0   278     12.9   930.1    0.00     995    92.9
 181   14:00   89.0     7    9.8   277     14.5   930.0    0.00     979    93.3
 181   14:10   88.9     7    9.2   275     13.6   930.1    0.00     961    93.7
 181   14:20   89.1     7    8.6   275     13.9   930.0    0.00     942    94.1
 181   14:30   89.8     7    8.5   267     13.3   929.9    0.00     922    94.6
 181   14:40   89.5     8    8.5   275     12.6   929.8    0.00     900    95.0
 181   14:50   89.3     8    6.6   265     10.4   929.7    0.00     876    95.4
 181   15:00   90.2     8    7.0   280     10.6   929.6    0.00     853    95.7
 181   15:10   90.3     7    8.0   274     11.1   929.4    0.00     828    96.1
 181   15:20   90.7     7    7.7   270     11.6   929.4    0.00     801    96.5
 181   15:30   90.5     7    7.9   269     11.5   929.3    0.00     774    96.9
 181   15:40   90.4     7    7.5   277     10.9   929.3    0.00     745    97.2
 181   15:50   90.6     7    7.6   274     11.3   929.2    0.00     716    97.6
 181   16:00   90.9     7    7.1   267     10.9   929.1    0.00     685    97.9
 181   16:10   91.2     7    7.7   269     12.1   929.1    0.00     653    98.2
 181   16:20   91.1     7    7.4   270     11.2   929.0    0.00     620    98.6
 181   16:30   91.1     8    6.4   276     10.4   929.0    0.00     586    98.8
 181   16:40   91.0     8    6.7   271     10.9   928.9    0.00     551    99.1
 181   16:50   89.9     9    6.1   277     10.7   928.9    0.00     516    99.3
 181   17:00   90.5    10    4.2   270      9.5   928.8    0.00     479    99.5
 181   17:10   90.2    11    2.8   267      5.6   928.9    0.00     443    99.8
 181   17:20   90.2    12    2.5   262      5.0   928.8    0.00     407    100.0
 181   17:30   90.0    12    3.5   271      5.7   928.8    0.00     370    100.2
 181   17:40   88.8    13    4.6   266      7.3   928.8    0.00     334    100.3
 181   17:50   88.1    14    6.5   264     10.4   928.7    0.00     297    100.4
 181   18:00   87.6    14    6.0   272     10.9   928.7    0.00     261    100.4
 181   18:10   87.4    14    4.5   281      7.8   928.7    0.00     226    100.5
 181   18:20   87.1    14    3.7   287      6.8   928.7    0.00     192    100.5
 181   18:30   86.2    15    3.1   320      5.6   928.8    0.00     162    100.5
 181   18:40   86.5    16    2.0   300      3.9   928.7    0.00     134    100.5
 181   18:50   85.8    16    3.2   279      5.6   928.6    0.00     107    100.3
 181   19:00   84.7    18    4.1   276      6.5   928.5    0.00      81    100.3
 181   19:10   83.6    19    4.1   308      7.6   928.4    0.00      58    100.2
 181   19:20   83.0    18    4.7   348      6.4   928.4    0.00      37    100.1
 181   19:30   82.9    18    4.8   322      7.1   928.4    0.00      18    100.0
 181   19:40   81.7    18    4.6   327      5.8   928.4    0.00       4    99.8
 181   19:50   81.6    17    4.4   347      5.8   928.4    0.00       1    99.6
 181   20:00   81.6    17    4.7   333      6.3   928.4    0.00       0    99.4
 181   20:10   80.4    18    5.1   317      6.4   928.4    0.00       0    99.2
 181   20:20   80.6    15    4.2   332      5.9   928.3    0.00       0    98.8
 181   20:30   82.1    12    4.5   352      5.8   928.4    0.00       0    98.6
 181   20:40   82.6    10    4.9   351      6.6   928.4    0.00       0    98.5

Return to Highlands Peak graphs page.


Western Regional Climate Center,wrcc@dri.edu